KCBE/CBE METAR and TAF weather

Enter ICAO airport designator
Station Type Date Time Source
KCBE METAR 2021/06/24 06:55 UTC NOAA

KCBE 240655Z AUTO 00000KT 10SM CLR 12/11 A3034 RMK AO2 T01200112


Station Type Date Time Source
KCBE Decoded METAR 2021/06/24 06:55 UTC NOAA

Cumberland, Greater Cumberland Regional Airport, MD, United States (KCBE) 39-36-55N 078-45-39W
Jun 24, 2021 - 02:55 AM EDT / 2021.06.24 0655 UTC
Wind: Calm:0
Visibility: 10 mile(s):0
Sky conditions: clear
Temperature: 53.6 F (12.0 C)
Dew Point: 52.2 F (11.2 C)
Relative Humidity: 94%
Pressure (altimeter): 30.34 in. Hg (1027 hPa)
ob: KCBE 240655Z AUTO 00000KT 10SM CLR 12/11 A3034 RMK AO2 T01200112
cycle: 7

Station Type Date Time Source
KCBE TAF UTC NOAA

Error!

Example: see airport list